createdAt,value
2022-08-25T00:01:16.241Z,3.53
2022-08-25T00:03:50.762Z,2.97
2022-08-25T00:06:23.653Z,4.07
2022-08-25T00:11:34.880Z,4.43
2022-08-25T00:14:10.722Z,3.13
2022-08-25T00:16:43.959Z,3.28
2022-08-25T00:19:21.037Z,2.70
2022-08-25T00:21:54.039Z,2.90
2022-08-25T00:24:28.903Z,2.80
2022-08-25T00:27:02.450Z,4.07
2022-08-25T00:29:37.983Z,2.90
2022-08-25T00:32:10.767Z,3.33
2022-08-25T00:34:43.483Z,3.10
2022-08-25T00:39:50.863Z,2.80
2022-08-25T00:42:23.856Z,3.50
2022-08-25T00:44:58.405Z,3.38
2022-08-25T00:47:31.436Z,4.20
2022-08-25T00:52:44.895Z,3.67
2022-08-25T00:55:22.368Z,2.53
2022-08-25T00:58:01.217Z,2.60
2022-08-25T01:00:37.230Z,2.72
2022-08-25T01:03:10.480Z,4.10
2022-08-25T01:05:45.463Z,2.83
2022-08-25T01:08:21.024Z,2.75
2022-08-25T01:10:55.332Z,2.10
2022-08-25T01:13:33.185Z,2.70
2022-08-25T01:16:06.291Z,3.42
2022-08-25T01:18:50.989Z,3.08
2022-08-25T01:21:27.351Z,2.85
2022-08-25T01:24:01.648Z,2.78
2022-08-25T01:26:36.328Z,2.45
2022-08-25T01:29:22.250Z,4.05
2022-08-25T01:31:58.007Z,4.35
2022-08-25T01:34:32.274Z,3.22
2022-08-25T01:37:06.544Z,2.50
2022-08-25T01:39:39.688Z,2.70
2022-08-25T01:42:33.852Z,3.50
2022-08-25T01:45:07.829Z,2.60
2022-08-25T01:47:40.724Z,2.47
2022-08-25T01:52:52.632Z,2.15
2022-08-25T01:55:25.523Z,4.22
2022-08-25T02:00:32.635Z,2.83
2022-08-25T02:05:49.045Z,2.00
2022-08-25T02:08:24.416Z,3.08
2022-08-25T02:10:57.179Z,3.22
2022-08-25T02:13:31.574Z,3.63
2022-08-25T02:16:05.791Z,3.53
2022-08-25T02:18:38.644Z,2.47
2022-08-25T02:23:45.545Z,2.55
2022-08-25T02:26:19.963Z,2.88
2022-08-25T02:28:54.009Z,2.83
2022-08-25T02:31:27.196Z,5.32
2022-08-25T02:34:00.261Z,3.65
2022-08-25T02:36:33.663Z,3.20
2022-08-25T02:39:10.425Z,3.80
2022-08-25T02:41:43.526Z,3.90
2022-08-25T02:44:16.225Z,4.20
2022-08-25T02:46:48.927Z,4.75
2022-08-25T02:49:21.665Z,4.32
2022-08-25T02:51:55.182Z,5.65
2022-08-25T02:54:29.381Z,4.80
2022-08-25T02:57:02.134Z,4.78
2022-08-25T03:02:09.194Z,4.30
2022-08-25T03:07:14.790Z,4.00
2022-08-25T03:09:49.791Z,2.75
2022-08-25T03:12:22.995Z,3.83
2022-08-25T03:14:55.790Z,3.47
2022-08-25T03:17:28.994Z,4.10
2022-08-25T03:20:03.524Z,4.15
2022-08-25T03:22:36.500Z,5.35
2022-08-25T03:25:29.027Z,4.70
2022-08-25T03:28:02.589Z,5.38
2022-08-25T03:30:36.584Z,3.95
2022-08-25T03:33:09.675Z,4.18
2022-08-25T03:35:42.814Z,4.45
2022-08-25T03:38:16.886Z,5.15
2022-08-25T03:40:51.117Z,3.90
2022-08-25T03:43:24.065Z,4.63
2022-08-25T03:45:57.112Z,3.72
2022-08-25T03:48:29.899Z,4.03
2022-08-25T03:51:02.714Z,3.05
2022-08-25T03:53:35.466Z,3.97
2022-08-25T03:58:42.395Z,3.17
2022-08-25T04:01:15.867Z,4.20
2022-08-25T04:03:51.029Z,7.18
2022-08-25T04:06:24.274Z,4.93
2022-08-25T04:08:58.639Z,5.53
2022-08-25T04:11:32.758Z,5.70
2022-08-25T04:14:06.346Z,4.18
2022-08-25T04:16:39.169Z,3.28
2022-08-25T04:19:14.084Z,6.20
2022-08-25T04:21:46.988Z,5.60
2022-08-25T04:29:27.912Z,2.90
2022-08-25T04:32:01.014Z,4.05
2022-08-25T04:34:33.831Z,3.08
2022-08-25T04:37:07.921Z,3.60
2022-08-25T04:39:40.885Z,3.95
2022-08-25T04:44:47.790Z,4.05
2022-08-25T04:47:20.540Z,3.40
2022-08-25T04:49:53.226Z,3.85
2022-08-25T04:52:25.928Z,3.45
2022-08-25T04:54:58.673Z,7.85
2022-08-25T04:57:32.681Z,4.55
2022-08-25T05:00:06.805Z,4.60
2022-08-25T05:02:39.521Z,5.55
2022-08-25T05:05:13.386Z,4.78
2022-08-25T05:07:46.782Z,4.30
2022-08-25T05:10:20.188Z,4.72
2022-08-25T05:12:54.901Z,3.20
2022-08-25T05:15:45.229Z,3.33
2022-08-25T05:18:21.287Z,3.80
2022-08-25T05:20:54.884Z,3.97
2022-08-25T05:23:27.592Z,4.65
2022-08-25T05:26:04.302Z,3.35
2022-08-25T05:28:40.690Z,4.35
2022-08-25T05:31:15.539Z,3.55
2022-08-25T05:33:48.638Z,3.60
2022-08-25T05:38:54.584Z,3.58
2022-08-25T05:41:30.233Z,5.65
2022-08-25T05:44:04.842Z,4.10
2022-08-25T05:46:37.523Z,3.03
2022-08-25T05:49:10.184Z,3.10
2022-08-25T05:51:42.897Z,3.97
2022-08-25T05:54:15.851Z,4.22
2022-08-25T05:56:48.624Z,3.67
2022-08-25T05:59:22.645Z,5.68
2022-08-25T06:02:13.080Z,6.03
2022-08-25T06:04:46.114Z,4.15
2022-08-25T06:07:19.010Z,4.82
2022-08-25T06:12:24.366Z,4.27
2022-08-25T06:14:58.743Z,3.20
2022-08-25T06:17:31.512Z,5.07
2022-08-25T06:20:05.877Z,3.75
2022-08-25T06:22:40.901Z,4.40
2022-08-25T06:25:15.636Z,3.75
2022-08-25T06:27:48.888Z,3.38
2022-08-25T06:30:28.544Z,4.88
2022-08-25T06:33:01.766Z,3.95
2022-08-25T06:35:34.909Z,4.65
2022-08-25T06:38:08.091Z,3.45
2022-08-25T06:40:40.763Z,7.38
2022-08-25T06:43:13.502Z,4.20
2022-08-25T06:45:48.431Z,5.32
2022-08-25T06:48:21.249Z,3.15
2022-08-25T06:50:54.186Z,4.47
2022-08-25T06:53:26.911Z,4.53
2022-08-25T06:56:04.573Z,4.75
2022-08-25T06:58:39.461Z,3.20
2022-08-25T07:01:20.329Z,3.83
2022-08-25T07:03:57.328Z,4.57
2022-08-25T07:06:32.952Z,4.30
2022-08-25T07:09:07.670Z,4.50
2022-08-25T07:11:41.040Z,4.40
2022-08-25T07:14:16.156Z,6.97
2022-08-25T07:16:50.594Z,4.25
2022-08-25T07:19:23.393Z,6.65
2022-08-25T07:24:28.996Z,12.63
2022-08-25T07:29:38.749Z,10.20
2022-08-25T07:32:16.958Z,9.82
2022-08-25T07:35:07.241Z,11.63
2022-08-25T07:37:49.333Z,12.73
2022-08-25T07:40:24.755Z,11.13
2022-08-25T07:43:00.412Z,19.15
2022-08-25T07:45:36.537Z,15.75
2022-08-25T07:48:21.476Z,13.45
2022-08-25T07:50:54.446Z,15.93
2022-08-25T07:53:27.261Z,11.35
2022-08-25T07:58:33.115Z,11.85
2022-08-25T08:01:08.076Z,9.73
2022-08-25T08:03:51.143Z,9.90
2022-08-25T08:06:25.985Z,12.18
2022-08-25T08:08:59.869Z,14.20
2022-08-25T08:11:45.146Z,11.98
2022-08-25T08:14:18.773Z,16.45
2022-08-25T08:16:52.177Z,11.77
2022-08-25T08:19:26.627Z,15.35
2022-08-25T08:22:02.238Z,14.77
2022-08-25T08:24:44.720Z,11.35
2022-08-25T08:27:27.188Z,10.32
2022-08-25T08:33:05.805Z,15.95
2022-08-25T08:35:27.362Z,12.40
2022-08-25T08:38:00.367Z,12.05
2022-08-25T08:41:04.794Z,9.43
2022-08-25T08:43:39.801Z,11.38
2022-08-25T08:46:12.634Z,8.40
2022-08-25T08:51:33.368Z,9.30
2022-08-25T08:54:15.045Z,8.93
2022-08-25T08:56:52.838Z,5.68
2022-08-25T08:59:31.003Z,7.13
2022-08-25T09:02:06.224Z,7.50
2022-08-25T09:04:49.567Z,6.38
2022-08-25T09:07:30.364Z,9.68
2022-08-25T09:10:05.323Z,7.88
2022-08-25T09:12:48.173Z,6.70
2022-08-25T09:18:08.719Z,12.10
2022-08-25T09:21:00.287Z,8.73
2022-08-25T09:23:41.536Z,6.90
2022-08-25T09:26:25.681Z,5.57
2022-08-25T09:29:03.301Z,9.70
2022-08-25T09:31:41.557Z,5.50
2022-08-25T09:34:19.317Z,6.88
2022-08-25T09:36:53.493Z,9.73
2022-08-25T09:39:27.727Z,8.10
2022-08-25T09:42:01.465Z,5.75
2022-08-25T09:44:43.928Z,5.63
2022-08-25T09:47:23.784Z,6.90
2022-08-25T09:50:00.304Z,4.55
2022-08-25T09:52:41.386Z,5.95
2022-08-25T09:55:32.426Z,7.55
2022-08-25T09:58:16.661Z,6.40
2022-08-25T10:01:08.118Z,10.45
2022-08-25T10:03:59.609Z,9.60
2022-08-25T10:06:38.674Z,9.02
2022-08-25T10:09:23.053Z,6.80
2022-08-25T10:12:01.079Z,9.57
2022-08-25T10:14:38.770Z,4.50
2022-08-25T10:17:24.752Z,7.85
2022-08-25T10:20:18.162Z,9.02
2022-08-25T10:22:53.876Z,4.60
2022-08-25T10:25:30.862Z,10.02
2022-08-25T10:28:13.824Z,7.50
2022-08-25T10:30:58.497Z,6.20
2022-08-25T10:33:39.994Z,5.55
2022-08-25T10:36:21.326Z,9.13
2022-08-25T10:38:58.210Z,9.18
2022-08-25T10:41:43.808Z,10.68
2022-08-25T10:44:43.096Z,4.82
2022-08-25T10:47:45.822Z,6.35
2022-08-25T10:50:27.821Z,5.97
2022-08-25T10:53:20.089Z,7.60
2022-08-25T10:56:08.664Z,5.70
2022-08-25T10:59:04.217Z,6.60
2022-08-25T11:01:53.573Z,5.07
2022-08-25T11:04:33.839Z,8.02
2022-08-25T11:07:13.085Z,6.35
2022-08-25T11:09:49.597Z,5.85
2022-08-25T11:12:31.078Z,11.18
2022-08-25T11:15:11.107Z,8.00
2022-08-25T11:17:53.688Z,11.02
2022-08-25T11:20:33.591Z,10.38
2022-08-25T11:23:14.792Z,7.45
2022-08-25T11:25:52.865Z,8.63
2022-08-25T11:28:34.324Z,9.50
2022-08-25T11:33:44.668Z,7.55
2022-08-25T11:36:29.513Z,8.02
2022-08-25T11:39:15.422Z,10.43
2022-08-25T11:42:01.147Z,13.20
2022-08-25T11:44:53.771Z,8.50
2022-08-25T11:48:09.428Z,7.15
2022-08-25T11:51:00.146Z,6.53
2022-08-25T11:53:35.335Z,8.57
2022-08-25T11:56:13.482Z,8.15
2022-08-25T11:58:50.079Z,9.80
2022-08-25T12:02:01.516Z,10.80
2022-08-25T12:04:45.015Z,20.77
2022-08-25T12:07:24.394Z,8.13
2022-08-25T12:10:20.949Z,15.23
2022-08-25T12:13:26.788Z,13.52
2022-08-25T12:16:02.398Z,13.30
2022-08-25T12:18:46.322Z,8.07
2022-08-25T12:21:33.704Z,12.05
2022-08-25T12:24:15.140Z,8.40
2022-08-25T12:26:57.684Z,9.15
2022-08-25T12:29:42.098Z,6.25
2022-08-25T12:32:26.332Z,11.35
2022-08-25T12:35:24.332Z,7.20
2022-08-25T12:38:00.613Z,10.68
2022-08-25T12:40:53.552Z,10.45
2022-08-25T12:43:33.983Z,10.32
2022-08-25T12:46:36.153Z,9.52
2022-08-25T12:49:30.315Z,8.55
2022-08-25T12:52:07.811Z,13.48
2022-08-25T12:54:48.364Z,11.65
2022-08-25T12:57:35.165Z,6.65
2022-08-25T13:00:18.459Z,9.85
2022-08-25T13:03:17.104Z,6.05
2022-08-25T13:06:10.894Z,7.93
2022-08-25T13:09:27.448Z,8.95
2022-08-25T13:12:08.343Z,7.63
2022-08-25T13:14:45.322Z,8.02
2022-08-25T13:17:27.356Z,7.97
2022-08-25T13:20:19.862Z,11.10
2022-08-25T13:22:57.548Z,10.02
2022-08-25T13:25:33.273Z,7.13
2022-08-25T13:28:11.039Z,12.25
2022-08-25T13:30:45.672Z,8.13
2022-08-25T13:33:20.328Z,8.80
2022-08-25T13:36:16.077Z,10.52
2022-08-25T13:38:49.968Z,9.35
2022-08-25T13:41:28.666Z,19.08
2022-08-25T13:44:02.683Z,11.98
2022-08-25T13:46:37.414Z,8.25
2022-08-25T13:49:11.179Z,10.50
2022-08-25T13:51:56.490Z,8.40
2022-08-25T13:54:32.596Z,8.55
2022-08-25T13:57:09.803Z,9.75
2022-08-25T13:59:46.517Z,10.82
2022-08-25T14:02:45.613Z,9.25
2022-08-25T14:05:36.043Z,13.10
2022-08-25T14:08:31.909Z,10.70
2022-08-25T14:11:14.910Z,12.18
2022-08-25T14:13:49.180Z,9.35
2022-08-25T14:16:25.408Z,10.02
2022-08-25T14:19:01.957Z,14.18
2022-08-25T14:21:35.078Z,11.50
2022-08-25T14:24:17.275Z,10.98
2022-08-25T14:26:55.434Z,11.50
2022-08-25T14:29:28.269Z,9.40
2022-08-25T14:32:02.374Z,12.02
2022-08-25T14:34:41.812Z,18.00
2022-08-25T14:37:18.523Z,11.50
2022-08-25T14:39:52.340Z,13.43
2022-08-25T14:42:26.358Z,8.55
2022-08-25T14:44:59.198Z,16.17
2022-08-25T14:47:33.048Z,14.98
2022-08-25T14:50:08.274Z,12.75
2022-08-25T14:52:43.740Z,13.32
2022-08-25T14:55:29.738Z,13.57
2022-08-25T14:58:04.602Z,11.77
2022-08-25T15:00:44.827Z,14.55
2022-08-25T15:03:25.020Z,12.23
2022-08-25T15:05:59.596Z,14.70
2022-08-25T15:08:50.128Z,11.88
2022-08-25T15:11:23.234Z,15.70
2022-08-25T15:13:56.503Z,20.13
2022-08-25T15:16:35.237Z,19.13
2022-08-25T15:19:11.498Z,22.25
2022-08-25T15:21:47.390Z,25.63
2022-08-25T15:24:22.462Z,20.45
2022-08-25T15:26:57.812Z,18.95
2022-08-25T15:29:32.352Z,18.40
2022-08-25T15:32:08.013Z,19.52
2022-08-25T15:34:40.715Z,17.58
2022-08-25T15:37:16.805Z,18.00
2022-08-25T15:39:49.542Z,16.15
2022-08-25T15:42:22.695Z,11.80
2022-08-25T15:44:57.748Z,14.23
2022-08-25T15:47:32.220Z,12.35
2022-08-25T15:50:07.609Z,15.15
2022-08-25T15:52:46.632Z,11.50
2022-08-25T15:55:21.184Z,10.10
2022-08-25T15:57:54.338Z,11.88
2022-08-25T16:00:27.059Z,13.77
2022-08-25T16:03:04.931Z,10.85
2022-08-25T16:05:45.147Z,12.05
2022-08-25T16:08:22.428Z,11.38
2022-08-25T16:10:55.764Z,10.23
2022-08-25T16:13:30.320Z,10.57
2022-08-25T16:16:05.180Z,7.35
2022-08-25T16:18:38.379Z,9.32
2022-08-25T16:21:12.870Z,11.95
2022-08-25T16:23:48.150Z,10.65
2022-08-25T16:26:22.531Z,10.23
2022-08-25T16:28:55.534Z,11.35
2022-08-25T16:31:28.301Z,12.18
2022-08-25T16:34:02.459Z,6.35
2022-08-25T16:36:35.180Z,11.80
2022-08-25T16:39:11.279Z,10.23
2022-08-25T16:41:43.969Z,10.13
2022-08-25T16:44:17.145Z,7.63
2022-08-25T16:46:56.051Z,6.28
2022-08-25T16:49:28.874Z,6.15
2022-08-25T16:52:02.539Z,7.40
2022-08-25T16:54:55.397Z,7.13
2022-08-25T16:57:30.046Z,9.75
2022-08-25T17:00:04.773Z,6.35
2022-08-25T17:02:37.661Z,11.85
2022-08-25T17:05:12.833Z,8.13
2022-08-25T17:08:06.276Z,9.02
2022-08-25T17:10:43.409Z,4.97
2022-08-25T17:13:17.324Z,7.20
2022-08-25T17:15:52.190Z,10.15
2022-08-25T17:18:25.598Z,5.20
2022-08-25T17:21:02.849Z,11.95
2022-08-25T17:23:38.552Z,11.35
2022-08-25T17:26:16.677Z,11.70
2022-08-25T17:28:50.218Z,12.93
2022-08-25T17:31:23.964Z,13.77
2022-08-25T17:33:57.342Z,12.70
2022-08-25T17:36:31.750Z,11.60
2022-08-25T17:39:04.929Z,12.02
2022-08-25T17:41:39.939Z,6.18
2022-08-25T17:44:14.285Z,14.23
2022-08-25T17:46:48.512Z,10.07
2022-08-25T17:49:22.471Z,10.05
2022-08-25T17:51:55.834Z,9.93
2022-08-25T17:54:28.694Z,10.27
2022-08-25T17:57:03.127Z,15.68
2022-08-25T17:59:37.173Z,7.53
2022-08-25T18:02:10.480Z,9.00
2022-08-25T18:04:43.746Z,10.63
2022-08-25T18:07:16.548Z,9.23
2022-08-25T18:09:49.939Z,8.25
2022-08-25T18:12:27.435Z,9.43
2022-08-25T18:15:00.276Z,11.43
2022-08-25T18:20:08.420Z,11.50
2022-08-25T18:22:44.121Z,10.90
2022-08-25T18:25:17.715Z,13.43
2022-08-25T18:27:51.976Z,11.23
2022-08-25T18:30:26.267Z,11.40
2022-08-25T18:33:00.275Z,16.30
2022-08-25T18:38:23.496Z,9.13
2022-08-25T18:40:57.858Z,8.73
2022-08-25T18:43:35.061Z,12.63
2022-08-25T18:46:08.266Z,9.77
2022-08-25T18:48:42.757Z,9.75
2022-08-25T18:53:50.245Z,12.43
2022-08-25T18:56:25.619Z,7.15
2022-08-25T18:58:59.772Z,12.77
2022-08-25T19:01:32.809Z,17.63
2022-08-25T19:04:05.884Z,8.90
2022-08-25T19:06:38.644Z,12.15
2022-08-25T19:09:16.897Z,10.90
2022-08-25T19:11:52.672Z,9.25
2022-08-25T19:14:29.426Z,10.90
2022-08-25T19:17:02.225Z,14.85
2022-08-25T19:19:35.561Z,8.35
2022-08-25T19:22:31.765Z,9.68
2022-08-25T19:25:06.405Z,11.60
2022-08-25T19:27:41.027Z,8.30
2022-08-25T19:30:17.470Z,9.20
2022-08-25T19:32:51.207Z,9.57
2022-08-25T19:35:31.842Z,8.23
2022-08-25T19:38:07.552Z,11.75
2022-08-25T19:41:01.001Z,9.70
2022-08-25T19:43:34.098Z,7.43
2022-08-25T19:48:41.095Z,9.60
2022-08-25T19:51:14.280Z,13.90
2022-08-25T19:53:54.841Z,9.05
2022-08-25T19:56:29.326Z,8.55
2022-08-25T19:59:02.571Z,12.82
2022-08-25T20:01:37.647Z,12.43
2022-08-25T20:04:13.178Z,8.48
2022-08-25T20:06:48.376Z,14.65
2022-08-25T20:09:39.292Z,9.63
2022-08-25T20:14:48.493Z,11.63
2022-08-25T20:17:26.251Z,12.05
2022-08-25T20:20:05.438Z,11.20
2022-08-25T20:22:38.769Z,10.07
2022-08-25T20:25:14.390Z,10.70
2022-08-25T20:27:50.773Z,10.93
2022-08-25T20:30:26.900Z,5.75
2022-08-25T20:33:01.594Z,7.78
2022-08-25T20:35:34.475Z,7.50
2022-08-25T20:40:43.461Z,7.10
2022-08-25T20:43:16.399Z,4.65
2022-08-25T20:48:24.078Z,8.63
2022-08-25T20:51:00.342Z,6.00
2022-08-25T20:53:35.320Z,6.40
2022-08-25T20:56:09.485Z,5.10
2022-08-25T20:58:43.448Z,6.22
2022-08-25T21:01:23.055Z,6.75
2022-08-25T21:03:57.509Z,9.10
2022-08-25T21:06:30.431Z,6.43
2022-08-25T21:09:03.577Z,6.50
2022-08-25T21:11:43.158Z,4.38
2022-08-25T21:14:16.854Z,6.07
2022-08-25T21:16:51.899Z,5.57
2022-08-25T21:19:30.139Z,7.55
2022-08-25T21:22:03.281Z,4.25
2022-08-25T21:24:36.507Z,7.10
2022-08-25T21:27:09.637Z,5.38
2022-08-25T21:32:28.305Z,5.75
2022-08-25T21:35:02.535Z,7.82
2022-08-25T21:37:40.419Z,4.60
2022-08-25T21:40:15.885Z,5.40
2022-08-25T21:42:48.873Z,3.40
2022-08-25T21:50:29.416Z,4.68
2022-08-25T21:53:02.259Z,4.80
2022-08-25T21:55:39.415Z,6.22
2022-08-25T21:58:14.930Z,3.10
2022-08-25T22:03:20.365Z,4.87
2022-08-25T22:05:54.787Z,3.67
2022-08-25T22:08:30.641Z,4.93
2022-08-25T22:11:03.718Z,4.35
2022-08-25T22:16:15.118Z,4.60
2022-08-25T22:18:48.234Z,4.32
2022-08-25T22:21:29.243Z,3.53
2022-08-25T22:24:03.372Z,4.63
2022-08-25T22:26:41.872Z,4.55
2022-08-25T22:29:25.024Z,5.25
2022-08-25T22:32:00.734Z,4.10
2022-08-25T22:34:35.786Z,4.28
2022-08-25T22:37:17.675Z,4.57
2022-08-25T22:39:50.639Z,4.85
2022-08-25T22:42:25.465Z,7.40
2022-08-25T22:44:58.671Z,6.50
2022-08-25T22:47:33.815Z,3.90
2022-08-25T22:50:07.527Z,4.40
2022-08-25T22:52:42.426Z,5.20
2022-08-25T22:55:15.589Z,4.95
2022-08-25T22:57:50.600Z,6.15
2022-08-25T23:00:27.669Z,7.32
2022-08-25T23:05:33.333Z,9.93
2022-08-25T23:08:07.759Z,5.03
2022-08-25T23:10:40.747Z,3.95
2022-08-25T23:13:19.415Z,5.57
2022-08-25T23:16:07.677Z,3.72
2022-08-25T23:18:45.540Z,4.13
2022-08-25T23:21:41.091Z,4.75
2022-08-25T23:24:26.819Z,4.72
2022-08-25T23:27:05.764Z,4.40
2022-08-25T23:29:40.820Z,6.38
2022-08-25T23:32:14.662Z,3.35
2022-08-25T23:34:47.831Z,4.93
2022-08-25T23:37:21.577Z,3.83
2022-08-25T23:39:55.732Z,6.22
2022-08-25T23:42:28.499Z,3.35
2022-08-25T23:45:01.838Z,8.50
2022-08-25T23:47:35.193Z,3.53
2022-08-25T23:50:09.510Z,7.45
2022-08-25T23:52:42.289Z,4.55
2022-08-25T23:55:16.351Z,3.70
2022-08-25T23:57:51.680Z,4.45
